sensor_id;sensor_type;location;lat;lon;timestamp;P1;durP1;ratioP1;P2;durP2;ratioP2
1004;SDS011;491;53.480;10.174;2022-10-31T00:00:17;14.73;;;11.93;;
1004;SDS011;491;53.480;10.174;2022-10-31T00:02:42;16.70;;;11.70;;
1004;SDS011;491;53.480;10.174;2022-10-31T00:05:08;13.57;;;11.07;;
1004;SDS011;491;53.480;10.174;2022-10-31T00:07:34;15.73;;;10.67;;
1004;SDS011;491;53.480;10.174;2022-10-31T00:10:08;13.70;;;9.60;;
1004;SDS011;491;53.480;10.174;2022-10-31T00:12:34;13.13;;;10.53;;
1004;SDS011;491;53.480;10.174;2022-10-31T00:14:59;14.00;;;10.57;;
1004;SDS011;491;53.480;10.174;2022-10-31T00:17:25;13.90;;;10.80;;
1004;SDS011;491;53.480;10.174;2022-10-31T00:19:50;11.73;;;9.27;;
1004;SDS011;491;53.480;10.174;2022-10-31T00:22:16;13.07;;;9.53;;
1004;SDS011;491;53.480;10.174;2022-10-31T00:24:41;12.87;;;10.17;;
1004;SDS011;491;53.480;10.174;2022-10-31T00:27:07;11.37;;;9.20;;
1004;SDS011;491;53.480;10.174;2022-10-31T00:29:32;12.53;;;10.20;;
1004;SDS011;491;53.480;10.174;2022-10-31T00:31:58;13.07;;;10.30;;
1004;SDS011;491;53.480;10.174;2022-10-31T00:34:23;11.60;;;9.20;;
1004;SDS011;491;53.480;10.174;2022-10-31T00:36:49;11.70;;;9.73;;
1004;SDS011;491;53.480;10.174;2022-10-31T00:39:14;9.23;;;8.23;;
1004;SDS011;491;53.480;10.174;2022-10-31T00:41:39;12.20;;;8.90;;
1004;SDS011;491;53.480;10.174;2022-10-31T00:44:05;10.30;;;8.50;;
1004;SDS011;491;53.480;10.174;2022-10-31T00:46:30;10.03;;;7.07;;
1004;SDS011;491;53.480;10.174;2022-10-31T00:48:56;11.93;;;8.97;;
1004;SDS011;491;53.480;10.174;2022-10-31T00:51:21;8.80;;;7.80;;
1004;SDS011;491;53.480;10.174;2022-10-31T00:53:47;9.90;;;8.50;;
1004;SDS011;491;53.480;10.174;2022-10-31T00:56:12;11.50;;;8.20;;
1004;SDS011;491;53.480;10.174;2022-10-31T00:58:38;13.53;;;8.80;;
1004;SDS011;491;53.480;10.174;2022-10-31T01:01:04;10.13;;;8.23;;
1004;SDS011;491;53.480;10.174;2022-10-31T01:03:30;11.57;;;9.00;;
1004;SDS011;491;53.480;10.174;2022-10-31T01:06:07;10.20;;;8.23;;
1004;SDS011;491;53.480;10.174;2022-10-31T01:08:35;10.43;;;7.53;;
1004;SDS011;491;53.480;10.174;2022-10-31T01:11:03;9.17;;;7.97;;
1004;SDS011;491;53.480;10.174;2022-10-31T01:13:40;11.20;;;9.00;;
1004;SDS011;491;53.480;10.174;2022-10-31T01:16:07;10.20;;;7.10;;
1004;SDS011;491;53.480;10.174;2022-10-31T01:18:35;8.50;;;7.13;;
1004;SDS011;491;53.480;10.174;2022-10-31T01:21:08;10.67;;;8.13;;
1004;SDS011;491;53.480;10.174;2022-10-31T01:23:33;8.43;;;6.37;;
1004;SDS011;491;53.480;10.174;2022-10-31T01:26:00;9.70;;;7.13;;
1004;SDS011;491;53.480;10.174;2022-10-31T01:28:27;10.30;;;7.30;;
1004;SDS011;491;53.480;10.174;2022-10-31T01:30:52;11.07;;;8.10;;
1004;SDS011;491;53.480;10.174;2022-10-31T01:33:18;10.27;;;7.87;;
1004;SDS011;491;53.480;10.174;2022-10-31T01:35:43;11.67;;;8.20;;
1004;SDS011;491;53.480;10.174;2022-10-31T01:38:09;8.50;;;6.87;;
1004;SDS011;491;53.480;10.174;2022-10-31T01:40:34;13.57;;;7.90;;
1004;SDS011;491;53.480;10.174;2022-10-31T01:43:00;7.87;;;7.00;;
1004;SDS011;491;53.480;10.174;2022-10-31T01:45:25;8.20;;;7.33;;
1004;SDS011;491;53.480;10.174;2022-10-31T01:47:51;8.30;;;6.83;;
1004;SDS011;491;53.480;10.174;2022-10-31T01:50:27;10.77;;;6.87;;
1004;SDS011;491;53.480;10.174;2022-10-31T01:52:57;10.80;;;7.30;;
1004;SDS011;491;53.480;10.174;2022-10-31T01:55:28;8.50;;;6.90;;
1004;SDS011;491;53.480;10.174;2022-10-31T01:57:57;6.87;;;5.90;;
1004;SDS011;491;53.480;10.174;2022-10-31T02:00:26;7.93;;;6.30;;
1004;SDS011;491;53.480;10.174;2022-10-31T02:02:52;8.00;;;6.03;;
1004;SDS011;491;53.480;10.174;2022-10-31T02:05:21;9.53;;;6.60;;
1004;SDS011;491;53.480;10.174;2022-10-31T02:07:57;7.20;;;6.30;;
1004;SDS011;491;53.480;10.174;2022-10-31T02:10:30;6.93;;;5.47;;
1004;SDS011;491;53.480;10.174;2022-10-31T02:12:57;6.90;;;5.47;;
1004;SDS011;491;53.480;10.174;2022-10-31T02:15:25;8.27;;;6.40;;
1004;SDS011;491;53.480;10.174;2022-10-31T02:17:51;8.63;;;5.83;;
1004;SDS011;491;53.480;10.174;2022-10-31T02:20:18;9.37;;;6.53;;
1004;SDS011;491;53.480;10.174;2022-10-31T02:25:46;7.53;;;5.40;;
1004;SDS011;491;53.480;10.174;2022-10-31T02:33:42;6.10;;;5.07;;
1004;SDS011;491;53.480;10.174;2022-10-31T02:36:27;8.30;;;5.47;;
1004;SDS011;491;53.480;10.174;2022-10-31T02:39:06;8.00;;;6.33;;
1004;SDS011;491;53.480;10.174;2022-10-31T02:41:41;8.33;;;6.27;;
1004;SDS011;491;53.480;10.174;2022-10-31T02:47:14;10.77;;;6.10;;
1004;SDS011;491;53.480;10.174;2022-10-31T02:49:48;8.00;;;6.83;;
1004;SDS011;491;53.480;10.174;2022-10-31T02:52:32;8.03;;;6.97;;
1004;SDS011;491;53.480;10.174;2022-10-31T02:54:58;10.13;;;6.90;;
1004;SDS011;491;53.480;10.174;2022-10-31T02:57:58;7.27;;;5.13;;
1004;SDS011;491;53.480;10.174;2022-10-31T03:00:32;8.77;;;6.83;;
1004;SDS011;491;53.480;10.174;2022-10-31T03:03:28;7.20;;;5.47;;
1004;SDS011;491;53.480;10.174;2022-10-31T03:08:54;8.97;;;6.47;;
1004;SDS011;491;53.480;10.174;2022-10-31T03:11:29;8.97;;;6.57;;
1004;SDS011;491;53.480;10.174;2022-10-31T03:14:05;8.00;;;6.80;;
1004;SDS011;491;53.480;10.174;2022-10-31T03:19:16;7.73;;;6.17;;
1004;SDS011;491;53.480;10.174;2022-10-31T03:24:24;8.97;;;6.73;;
1004;SDS011;491;53.480;10.174;2022-10-31T03:26:55;8.17;;;6.30;;
1004;SDS011;491;53.480;10.174;2022-10-31T03:29:25;7.33;;;5.13;;
1004;SDS011;491;53.480;10.174;2022-10-31T03:32:00;6.40;;;5.10;;
1004;SDS011;491;53.480;10.174;2022-10-31T03:34:30;8.93;;;6.40;;
1004;SDS011;491;53.480;10.174;2022-10-31T03:36:57;9.80;;;7.67;;
1004;SDS011;491;53.480;10.174;2022-10-31T03:39:26;8.23;;;5.53;;
1004;SDS011;491;53.480;10.174;2022-10-31T03:41:53;7.10;;;5.80;;
1004;SDS011;491;53.480;10.174;2022-10-31T03:44:23;10.13;;;6.60;;
1004;SDS011;491;53.480;10.174;2022-10-31T03:46:49;7.10;;;5.10;;
1004;SDS011;491;53.480;10.174;2022-10-31T03:49:15;8.07;;;5.63;;
1004;SDS011;491;53.480;10.174;2022-10-31T03:51:46;10.20;;;6.57;;
1004;SDS011;491;53.480;10.174;2022-10-31T03:55:19;6.80;;;5.33;;
1004;SDS011;491;53.480;10.174;2022-10-31T03:57:27;6.77;;;5.47;;
1004;SDS011;491;53.480;10.174;2022-10-31T04:00:13;7.30;;;5.50;;
1004;SDS011;491;53.480;10.174;2022-10-31T04:02:42;8.50;;;5.10;;
1004;SDS011;491;53.480;10.174;2022-10-31T04:05:11;6.33;;;5.37;;
1004;SDS011;491;53.480;10.174;2022-10-31T04:07:39;7.10;;;4.90;;
1004;SDS011;491;53.480;10.174;2022-10-31T04:10:09;9.80;;;5.67;;
1004;SDS011;491;53.480;10.174;2022-10-31T04:12:37;7.27;;;5.30;;
1004;SDS011;491;53.480;10.174;2022-10-31T04:15:05;7.30;;;5.40;;
1004;SDS011;491;53.480;10.174;2022-10-31T04:17:33;7.10;;;5.00;;
1004;SDS011;491;53.480;10.174;2022-10-31T04:20:03;6.07;;;5.40;;
1004;SDS011;491;53.480;10.174;2022-10-31T04:22:29;9.80;;;6.57;;
1004;SDS011;491;53.480;10.174;2022-10-31T04:24:54;7.30;;;4.90;;
1004;SDS011;491;53.480;10.174;2022-10-31T04:27:20;7.27;;;5.70;;
1004;SDS011;491;53.480;10.174;2022-10-31T04:29:45;9.20;;;5.00;;
1004;SDS011;491;53.480;10.174;2022-10-31T04:32:11;6.73;;;4.67;;
1004;SDS011;491;53.480;10.174;2022-10-31T04:34:36;6.73;;;5.37;;
1004;SDS011;491;53.480;10.174;2022-10-31T04:37:01;7.57;;;4.87;;
1004;SDS011;491;53.480;10.174;2022-10-31T04:39:27;12.77;;;5.67;;
1004;SDS011;491;53.480;10.174;2022-10-31T04:41:53;13.03;;;6.67;;
1004;SDS011;491;53.480;10.174;2022-10-31T04:44:19;12.50;;;5.80;;
1004;SDS011;491;53.480;10.174;2022-10-31T04:46:45;15.40;;;8.43;;
1004;SDS011;491;53.480;10.174;2022-10-31T04:49:10;27.23;;;7.57;;
1004;SDS011;491;53.480;10.174;2022-10-31T04:51:36;11.17;;;6.97;;
1004;SDS011;491;53.480;10.174;2022-10-31T04:54:01;15.40;;;6.80;;
1004;SDS011;491;53.480;10.174;2022-10-31T04:56:27;11.97;;;5.90;;
1004;SDS011;491;53.480;10.174;2022-10-31T04:58:52;15.97;;;7.53;;
1004;SDS011;491;53.480;10.174;2022-10-31T05:01:17;21.73;;;7.93;;
1004;SDS011;491;53.480;10.174;2022-10-31T05:03:43;14.27;;;7.93;;
1004;SDS011;491;53.480;10.174;2022-10-31T05:06:08;11.90;;;7.17;;
1004;SDS011;491;53.480;10.174;2022-10-31T05:08:34;8.73;;;6.30;;
1004;SDS011;491;53.480;10.174;2022-10-31T05:11:00;13.80;;;8.27;;
1004;SDS011;491;53.480;10.174;2022-10-31T05:13:26;13.67;;;8.43;;
1004;SDS011;491;53.480;10.174;2022-10-31T05:15:52;13.90;;;7.87;;
1004;SDS011;491;53.480;10.174;2022-10-31T05:18:17;15.13;;;9.33;;
1004;SDS011;491;53.480;10.174;2022-10-31T05:20:43;17.27;;;9.13;;
1004;SDS011;491;53.480;10.174;2022-10-31T05:23:11;15.10;;;8.77;;
1004;SDS011;491;53.480;10.174;2022-10-31T05:25:37;11.23;;;8.10;;
1004;SDS011;491;53.480;10.174;2022-10-31T05:28:05;14.87;;;9.40;;
1004;SDS011;491;53.480;10.174;2022-10-31T05:30:31;12.70;;;7.83;;
1004;SDS011;491;53.480;10.174;2022-10-31T05:32:57;10.67;;;7.60;;
1004;SDS011;491;53.480;10.174;2022-10-31T05:35:24;10.53;;;7.10;;
1004;SDS011;491;53.480;10.174;2022-10-31T05:37:51;14.00;;;7.90;;
1004;SDS011;491;53.480;10.174;2022-10-31T05:40:18;9.83;;;7.40;;
1004;SDS011;491;53.480;10.174;2022-10-31T05:42:44;12.67;;;8.57;;
1004;SDS011;491;53.480;10.174;2022-10-31T05:45:11;10.93;;;7.20;;
1004;SDS011;491;53.480;10.174;2022-10-31T05:47:40;15.00;;;8.97;;
1004;SDS011;491;53.480;10.174;2022-10-31T05:50:06;15.13;;;9.20;;
1004;SDS011;491;53.480;10.174;2022-10-31T05:52:32;14.83;;;8.70;;
1004;SDS011;491;53.480;10.174;2022-10-31T05:54:58;18.60;;;9.13;;
1004;SDS011;491;53.480;10.174;2022-10-31T05:57:24;16.30;;;10.23;;
1004;SDS011;491;53.480;10.174;2022-10-31T05:59:49;20.47;;;11.03;;
1004;SDS011;491;53.480;10.174;2022-10-31T06:02:17;19.40;;;10.20;;
1004;SDS011;491;53.480;10.174;2022-10-31T06:04:43;19.60;;;10.73;;
1004;SDS011;491;53.480;10.174;2022-10-31T06:07:09;19.60;;;10.33;;
1004;SDS011;491;53.480;10.174;2022-10-31T06:09:34;23.37;;;10.13;;
1004;SDS011;491;53.480;10.174;2022-10-31T06:12:00;21.13;;;11.50;;
1004;SDS011;491;53.480;10.174;2022-10-31T06:14:25;21.67;;;11.07;;
1004;SDS011;491;53.480;10.174;2022-10-31T06:16:51;21.93;;;10.90;;
1004;SDS011;491;53.480;10.174;2022-10-31T06:19:16;17.77;;;10.90;;
1004;SDS011;491;53.480;10.174;2022-10-31T06:21:41;17.70;;;9.90;;
1004;SDS011;491;53.480;10.174;2022-10-31T06:24:07;19.23;;;11.20;;
1004;SDS011;491;53.480;10.174;2022-10-31T06:26:32;20.07;;;11.43;;
1004;SDS011;491;53.480;10.174;2022-10-31T06:28:58;19.60;;;12.30;;
1004;SDS011;491;53.480;10.174;2022-10-31T06:31:23;21.73;;;13.30;;
1004;SDS011;491;53.480;10.174;2022-10-31T06:33:49;23.13;;;11.53;;
1004;SDS011;491;53.480;10.174;2022-10-31T06:36:14;19.90;;;11.77;;
1004;SDS011;491;53.480;10.174;2022-10-31T06:38:40;19.93;;;11.50;;
1004;SDS011;491;53.480;10.174;2022-10-31T06:41:05;28.47;;;14.40;;
1004;SDS011;491;53.480;10.174;2022-10-31T06:43:31;21.90;;;12.50;;
1004;SDS011;491;53.480;10.174;2022-10-31T06:45:56;22.43;;;11.67;;
1004;SDS011;491;53.480;10.174;2022-10-31T06:48:23;25.90;;;13.10;;
1004;SDS011;491;53.480;10.174;2022-10-31T06:50:49;28.83;;;12.53;;
1004;SDS011;491;53.480;10.174;2022-10-31T06:53:14;29.73;;;13.17;;
1004;SDS011;491;53.480;10.174;2022-10-31T06:55:40;25.33;;;13.67;;
1004;SDS011;491;53.480;10.174;2022-10-31T06:58:06;40.67;;;15.17;;
1004;SDS011;491;53.480;10.174;2022-10-31T07:00:33;31.80;;;13.87;;
1004;SDS011;491;53.480;10.174;2022-10-31T07:03:03;27.67;;;12.80;;
1004;SDS011;491;53.480;10.174;2022-10-31T07:05:30;31.60;;;14.37;;
1004;SDS011;491;53.480;10.174;2022-10-31T07:08:01;28.30;;;13.27;;
1004;SDS011;491;53.480;10.174;2022-10-31T07:10:30;26.63;;;12.60;;
1004;SDS011;491;53.480;10.174;2022-10-31T07:12:58;24.00;;;12.97;;
1004;SDS011;491;53.480;10.174;2022-10-31T07:15:25;28.10;;;14.23;;
1004;SDS011;491;53.480;10.174;2022-10-31T07:17:51;33.90;;;14.73;;
1004;SDS011;491;53.480;10.174;2022-10-31T07:20:17;26.57;;;13.50;;
1004;SDS011;491;53.480;10.174;2022-10-31T07:22:43;26.83;;;13.43;;
1004;SDS011;491;53.480;10.174;2022-10-31T07:25:09;25.23;;;11.50;;
1004;SDS011;491;53.480;10.174;2022-10-31T07:27:36;25.33;;;14.00;;
1004;SDS011;491;53.480;10.174;2022-10-31T07:30:05;33.03;;;15.30;;
1004;SDS011;491;53.480;10.174;2022-10-31T07:32:40;34.47;;;16.50;;
1004;SDS011;491;53.480;10.174;2022-10-31T07:35:08;30.33;;;15.37;;
1004;SDS011;491;53.480;10.174;2022-10-31T07:37:35;29.20;;;14.07;;
1004;SDS011;491;53.480;10.174;2022-10-31T07:40:04;30.93;;;14.03;;
1004;SDS011;491;53.480;10.174;2022-10-31T07:42:38;24.20;;;14.00;;
1004;SDS011;491;53.480;10.174;2022-10-31T07:45:09;33.97;;;16.03;;
1004;SDS011;491;53.480;10.174;2022-10-31T07:47:43;29.70;;;15.30;;
1004;SDS011;491;53.480;10.174;2022-10-31T07:50:14;34.70;;;17.47;;
1004;SDS011;491;53.480;10.174;2022-10-31T07:52:41;38.77;;;17.70;;
1004;SDS011;491;53.480;10.174;2022-10-31T07:55:07;39.90;;;16.80;;
1004;SDS011;491;53.480;10.174;2022-10-31T07:57:33;37.97;;;17.30;;
1004;SDS011;491;53.480;10.174;2022-10-31T07:59:59;33.63;;;16.10;;
1004;SDS011;491;53.480;10.174;2022-10-31T08:02:24;29.27;;;16.27;;
1004;SDS011;491;53.480;10.174;2022-10-31T08:04:50;31.93;;;16.57;;
1004;SDS011;491;53.480;10.174;2022-10-31T08:07:16;31.20;;;16.23;;
1004;SDS011;491;53.480;10.174;2022-10-31T08:09:42;28.40;;;16.30;;
1004;SDS011;491;53.480;10.174;2022-10-31T08:12:07;33.97;;;18.07;;
1004;SDS011;491;53.480;10.174;2022-10-31T08:14:36;31.27;;;16.17;;
1004;SDS011;491;53.480;10.174;2022-10-31T08:17:01;33.17;;;15.43;;
1004;SDS011;491;53.480;10.174;2022-10-31T08:19:26;33.37;;;16.57;;
1004;SDS011;491;53.480;10.174;2022-10-31T08:21:52;29.30;;;15.50;;
1004;SDS011;491;53.480;10.174;2022-10-31T08:24:19;33.03;;;15.50;;
1004;SDS011;491;53.480;10.174;2022-10-31T08:26:45;32.80;;;17.47;;
1004;SDS011;491;53.480;10.174;2022-10-31T08:29:11;28.47;;;15.60;;
1004;SDS011;491;53.480;10.174;2022-10-31T08:31:36;31.90;;;15.60;;
1004;SDS011;491;53.480;10.174;2022-10-31T08:34:11;33.67;;;16.23;;
1004;SDS011;491;53.480;10.174;2022-10-31T08:36:36;24.80;;;14.40;;
1004;SDS011;491;53.480;10.174;2022-10-31T08:39:02;28.63;;;14.67;;
1004;SDS011;491;53.480;10.174;2022-10-31T08:41:28;31.13;;;14.90;;
1004;SDS011;491;53.480;10.174;2022-10-31T08:43:54;27.20;;;12.50;;
1004;SDS011;491;53.480;10.174;2022-10-31T08:46:19;27.13;;;13.73;;
1004;SDS011;491;53.480;10.174;2022-10-31T08:48:47;28.47;;;13.77;;
1004;SDS011;491;53.480;10.174;2022-10-31T08:51:13;30.87;;;13.53;;
1004;SDS011;491;53.480;10.174;2022-10-31T08:53:38;22.07;;;12.40;;
1004;SDS011;491;53.480;10.174;2022-10-31T08:56:04;30.43;;;11.20;;
1004;SDS011;491;53.480;10.174;2022-10-31T08:58:30;22.10;;;12.97;;
1004;SDS011;491;53.480;10.174;2022-10-31T09:00:55;28.80;;;13.10;;
1004;SDS011;491;53.480;10.174;2022-10-31T09:03:24;25.60;;;14.30;;
1004;SDS011;491;53.480;10.174;2022-10-31T09:05:54;24.17;;;12.90;;
1004;SDS011;491;53.480;10.174;2022-10-31T09:08:21;27.50;;;13.60;;
1004;SDS011;491;53.480;10.174;2022-10-31T09:10:46;31.83;;;13.80;;
1004;SDS011;491;53.480;10.174;2022-10-31T09:13:16;24.07;;;14.00;;
1004;SDS011;491;53.480;10.174;2022-10-31T09:15:44;25.40;;;13.23;;
1004;SDS011;491;53.480;10.174;2022-10-31T09:18:13;23.20;;;13.30;;
1004;SDS011;491;53.480;10.174;2022-10-31T09:20:40;27.20;;;13.80;;
1004;SDS011;491;53.480;10.174;2022-10-31T09:23:08;29.50;;;13.03;;
1004;SDS011;491;53.480;10.174;2022-10-31T09:25:38;29.33;;;12.77;;
1004;SDS011;491;53.480;10.174;2022-10-31T09:28:09;31.37;;;13.17;;
1004;SDS011;491;53.480;10.174;2022-10-31T09:30:38;29.90;;;14.30;;
1004;SDS011;491;53.480;10.174;2022-10-31T09:33:05;28.93;;;13.43;;
1004;SDS011;491;53.480;10.174;2022-10-31T09:35:32;29.63;;;13.80;;
1004;SDS011;491;53.480;10.174;2022-10-31T09:37:58;28.17;;;13.30;;
1004;SDS011;491;53.480;10.174;2022-10-31T09:46:04;30.50;;;12.40;;
1004;SDS011;491;53.480;10.174;2022-10-31T09:51:24;21.60;;;11.97;;
1004;SDS011;491;53.480;10.174;2022-10-31T09:53:59;29.07;;;13.33;;
1004;SDS011;491;53.480;10.174;2022-10-31T09:56:30;24.93;;;12.77;;
1004;SDS011;491;53.480;10.174;2022-10-31T09:58:57;23.13;;;11.60;;
1004;SDS011;491;53.480;10.174;2022-10-31T10:06:43;28.67;;;13.97;;
1004;SDS011;491;53.480;10.174;2022-10-31T10:09:12;27.87;;;13.53;;
1004;SDS011;491;53.480;10.174;2022-10-31T10:11:50;25.20;;;12.13;;
1004;SDS011;491;53.480;10.174;2022-10-31T10:22:42;22.73;;;12.20;;
1004;SDS011;491;53.480;10.174;2022-10-31T10:25:16;24.30;;;14.60;;
1004;SDS011;491;53.480;10.174;2022-10-31T10:27:58;24.60;;;12.73;;
1004;SDS011;491;53.480;10.174;2022-10-31T10:30:42;24.10;;;12.73;;
1004;SDS011;491;53.480;10.174;2022-10-31T10:33:18;23.03;;;13.20;;
1004;SDS011;491;53.480;10.174;2022-10-31T10:35:49;27.17;;;14.03;;
1004;SDS011;491;53.480;10.174;2022-10-31T10:38:34;23.70;;;12.93;;
1004;SDS011;491;53.480;10.174;2022-10-31T10:41:16;23.60;;;12.27;;
1004;SDS011;491;53.480;10.174;2022-10-31T10:43:45;23.10;;;13.67;;
1004;SDS011;491;53.480;10.174;2022-10-31T10:46:16;27.43;;;14.03;;
1004;SDS011;491;53.480;10.174;2022-10-31T10:51:46;28.13;;;13.17;;
1004;SDS011;491;53.480;10.174;2022-10-31T10:57:00;23.77;;;13.73;;
1004;SDS011;491;53.480;10.174;2022-10-31T10:59:46;23.17;;;12.73;;
1004;SDS011;491;53.480;10.174;2022-10-31T11:02:17;24.43;;;13.50;;
1004;SDS011;491;53.480;10.174;2022-10-31T11:04:45;16.43;;;10.27;;
1004;SDS011;491;53.480;10.174;2022-10-31T11:07:14;25.17;;;12.63;;
1004;SDS011;491;53.480;10.174;2022-10-31T11:09:40;24.00;;;13.03;;
1004;SDS011;491;53.480;10.174;2022-10-31T11:12:26;22.10;;;13.40;;
1004;SDS011;491;53.480;10.174;2022-10-31T11:14:56;23.00;;;12.77;;
1004;SDS011;491;53.480;10.174;2022-10-31T11:17:36;20.57;;;10.83;;
1004;SDS011;491;53.480;10.174;2022-10-31T11:20:49;20.23;;;12.47;;
1004;SDS011;491;53.480;10.174;2022-10-31T11:23:00;17.53;;;11.33;;
1004;SDS011;491;53.480;10.174;2022-10-31T11:25:38;24.57;;;12.60;;
1004;SDS011;491;53.480;10.174;2022-10-31T11:28:05;22.30;;;11.90;;
1004;SDS011;491;53.480;10.174;2022-10-31T11:30:50;19.03;;;11.03;;
1004;SDS011;491;53.480;10.174;2022-10-31T11:33:23;18.40;;;10.23;;
1004;SDS011;491;53.480;10.174;2022-10-31T11:35:53;18.27;;;11.80;;
1004;SDS011;491;53.480;10.174;2022-10-31T11:38:20;22.57;;;11.73;;
1004;SDS011;491;53.480;10.174;2022-10-31T11:40:54;17.83;;;11.00;;
1004;SDS011;491;53.480;10.174;2022-10-31T11:43:26;21.60;;;12.57;;
1004;SDS011;491;53.480;10.174;2022-10-31T11:45:55;19.60;;;12.80;;
1004;SDS011;491;53.480;10.174;2022-10-31T11:48:22;19.33;;;11.07;;
1004;SDS011;491;53.480;10.174;2022-10-31T11:50:51;18.97;;;11.80;;
1004;SDS011;491;53.480;10.174;2022-10-31T11:53:21;15.17;;;8.80;;
1004;SDS011;491;53.480;10.174;2022-10-31T11:56:03;18.90;;;11.10;;
1004;SDS011;491;53.480;10.174;2022-10-31T11:58:29;15.40;;;10.17;;
1004;SDS011;491;53.480;10.174;2022-10-31T12:00:55;17.43;;;11.10;;
1004;SDS011;491;53.480;10.174;2022-10-31T12:05:47;16.53;;;9.20;;
1004;SDS011;491;53.480;10.174;2022-10-31T12:08:23;16.10;;;8.63;;
1004;SDS011;491;53.480;10.174;2022-10-31T12:16:36;16.37;;;9.37;;
1004;SDS011;491;53.480;10.174;2022-10-31T12:22:29;13.90;;;8.60;;
1004;SDS011;491;53.480;10.174;2022-10-31T12:25:38;12.23;;;8.30;;
1004;SDS011;491;53.480;10.174;2022-10-31T12:33:58;11.80;;;9.37;;
1004;SDS011;491;53.480;10.174;2022-10-31T12:36:59;16.03;;;10.00;;
1004;SDS011;491;53.480;10.174;2022-10-31T12:39:47;14.87;;;8.90;;
1004;SDS011;491;53.480;10.174;2022-10-31T12:48:31;12.20;;;8.73;;
1004;SDS011;491;53.480;10.174;2022-10-31T12:51:27;13.50;;;8.53;;
1004;SDS011;491;53.480;10.174;2022-10-31T12:54:03;15.37;;;8.30;;
1004;SDS011;491;53.480;10.174;2022-10-31T12:59:42;11.77;;;6.53;;
1004;SDS011;491;53.480;10.174;2022-10-31T13:02:18;14.67;;;5.73;;
1004;SDS011;491;53.480;10.174;2022-10-31T13:04:59;13.70;;;7.30;;
1004;SDS011;491;53.480;10.174;2022-10-31T13:07:46;13.17;;;6.90;;
1004;SDS011;491;53.480;10.174;2022-10-31T13:10:19;9.67;;;6.53;;
1004;SDS011;491;53.480;10.174;2022-10-31T13:12:48;10.83;;;7.17;;
1004;SDS011;491;53.480;10.174;2022-10-31T13:15:18;9.07;;;5.73;;
1004;SDS011;491;53.480;10.174;2022-10-31T13:17:47;10.03;;;6.23;;
1004;SDS011;491;53.480;10.174;2022-10-31T13:20:20;12.20;;;6.27;;
1004;SDS011;491;53.480;10.174;2022-10-31T13:23:29;9.73;;;5.80;;
1004;SDS011;491;53.480;10.174;2022-10-31T13:25:57;14.43;;;7.00;;
1004;SDS011;491;53.480;10.174;2022-10-31T13:28:40;9.70;;;5.80;;
1004;SDS011;491;53.480;10.174;2022-10-31T13:31:22;11.90;;;6.23;;
1004;SDS011;491;53.480;10.174;2022-10-31T13:33:49;10.80;;;6.50;;
1004;SDS011;491;53.480;10.174;2022-10-31T13:36:28;11.60;;;6.80;;
1004;SDS011;491;53.480;10.174;2022-10-31T13:44:20;9.97;;;5.57;;
1004;SDS011;491;53.480;10.174;2022-10-31T13:46:49;13.80;;;6.13;;
1004;SDS011;491;53.480;10.174;2022-10-31T13:52:04;12.97;;;7.10;;
1004;SDS011;491;53.480;10.174;2022-10-31T13:54:40;9.50;;;5.30;;
1004;SDS011;491;53.480;10.174;2022-10-31T13:59:48;11.63;;;7.53;;
1004;SDS011;491;53.480;10.174;2022-10-31T14:02:17;13.33;;;7.90;;
1004;SDS011;491;53.480;10.174;2022-10-31T14:04:50;12.80;;;7.77;;
1004;SDS011;491;53.480;10.174;2022-10-31T14:07:19;14.70;;;8.03;;
1004;SDS011;491;53.480;10.174;2022-10-31T14:12:29;13.50;;;8.00;;
1004;SDS011;491;53.480;10.174;2022-10-31T14:15:54;12.87;;;7.10;;
1004;SDS011;491;53.480;10.174;2022-10-31T14:17:49;12.23;;;7.10;;
1004;SDS011;491;53.480;10.174;2022-10-31T14:22:44;15.87;;;8.53;;
1004;SDS011;491;53.480;10.174;2022-10-31T14:25:26;15.70;;;9.10;;
1004;SDS011;491;53.480;10.174;2022-10-31T14:27:55;15.03;;;9.00;;
1004;SDS011;491;53.480;10.174;2022-10-31T14:30:23;17.17;;;10.00;;
1004;SDS011;491;53.480;10.174;2022-10-31T14:32:51;15.07;;;9.10;;
1004;SDS011;491;53.480;10.174;2022-10-31T14:35:19;13.27;;;7.80;;
1004;SDS011;491;53.480;10.174;2022-10-31T14:37:59;15.07;;;8.37;;
1004;SDS011;491;53.480;10.174;2022-10-31T14:40:46;15.13;;;7.93;;
1004;SDS011;491;53.480;10.174;2022-10-31T14:43:41;11.50;;;7.40;;
1004;SDS011;491;53.480;10.174;2022-10-31T14:46:17;13.80;;;8.70;;
1004;SDS011;491;53.480;10.174;2022-10-31T14:49:10;14.10;;;7.90;;
1004;SDS011;491;53.480;10.174;2022-10-31T14:51:47;17.07;;;8.60;;
1004;SDS011;491;53.480;10.174;2022-10-31T14:54:14;15.87;;;8.63;;
1004;SDS011;491;53.480;10.174;2022-10-31T14:56:53;14.87;;;7.77;;
1004;SDS011;491;53.480;10.174;2022-10-31T14:59:27;12.63;;;8.53;;
1004;SDS011;491;53.480;10.174;2022-10-31T15:02:00;21.73;;;10.60;;
1004;SDS011;491;53.480;10.174;2022-10-31T15:04:34;20.13;;;10.17;;
1004;SDS011;491;53.480;10.174;2022-10-31T15:07:17;12.17;;;7.73;;
1004;SDS011;491;53.480;10.174;2022-10-31T15:10:02;18.10;;;8.03;;
1004;SDS011;491;53.480;10.174;2022-10-31T15:12:43;12.20;;;7.30;;
1004;SDS011;491;53.480;10.174;2022-10-31T15:15:12;11.90;;;6.90;;
1004;SDS011;491;53.480;10.174;2022-10-31T15:17:48;11.73;;;7.13;;
1004;SDS011;491;53.480;10.174;2022-10-31T15:20:17;14.07;;;7.40;;
1004;SDS011;491;53.480;10.174;2022-10-31T15:22:51;12.63;;;8.90;;
1004;SDS011;491;53.480;10.174;2022-10-31T15:25:19;17.13;;;8.40;;
1004;SDS011;491;53.480;10.174;2022-10-31T15:27:47;15.70;;;8.70;;
1004;SDS011;491;53.480;10.174;2022-10-31T15:30:18;13.70;;;7.10;;
1004;SDS011;491;53.480;10.174;2022-10-31T15:32:48;13.27;;;7.00;;
1004;SDS011;491;53.480;10.174;2022-10-31T15:35:19;17.90;;;8.50;;
1004;SDS011;491;53.480;10.174;2022-10-31T15:37:49;15.23;;;6.93;;
1004;SDS011;491;53.480;10.174;2022-10-31T15:40:15;14.03;;;7.80;;
1004;SDS011;491;53.480;10.174;2022-10-31T15:42:43;17.90;;;8.60;;
1004;SDS011;491;53.480;10.174;2022-10-31T15:45:18;16.47;;;7.60;;
1004;SDS011;491;53.480;10.174;2022-10-31T15:47:52;14.97;;;7.27;;
1004;SDS011;491;53.480;10.174;2022-10-31T15:51:00;11.77;;;6.80;;
1004;SDS011;491;53.480;10.174;2022-10-31T15:53:18;17.60;;;7.20;;
1004;SDS011;491;53.480;10.174;2022-10-31T15:56:02;11.03;;;6.60;;
1004;SDS011;491;53.480;10.174;2022-10-31T15:58:35;17.40;;;8.97;;
1004;SDS011;491;53.480;10.174;2022-10-31T16:01:18;16.10;;;7.60;;
1004;SDS011;491;53.480;10.174;2022-10-31T16:03:56;15.53;;;6.77;;
1004;SDS011;491;53.480;10.174;2022-10-31T16:06:37;18.03;;;7.03;;
1004;SDS011;491;53.480;10.174;2022-10-31T16:09:03;14.33;;;6.90;;
1004;SDS011;491;53.480;10.174;2022-10-31T16:11:45;14.90;;;6.97;;
1004;SDS011;491;53.480;10.174;2022-10-31T16:16:44;14.53;;;8.73;;
1004;SDS011;491;53.480;10.174;2022-10-31T16:19:15;13.73;;;7.07;;
1004;SDS011;491;53.480;10.174;2022-10-31T16:21:44;15.33;;;7.80;;
1004;SDS011;491;53.480;10.174;2022-10-31T16:24:14;17.20;;;8.40;;
1004;SDS011;491;53.480;10.174;2022-10-31T16:26:40;20.27;;;8.90;;
1004;SDS011;491;53.480;10.174;2022-10-31T16:29:21;15.00;;;7.67;;
1004;SDS011;491;53.480;10.174;2022-10-31T16:32:00;15.47;;;7.53;;
1004;SDS011;491;53.480;10.174;2022-10-31T16:34:26;12.70;;;8.10;;
1004;SDS011;491;53.480;10.174;2022-10-31T16:36:51;16.20;;;8.43;;
1004;SDS011;491;53.480;10.174;2022-10-31T16:39:17;19.50;;;8.70;;
1004;SDS011;491;53.480;10.174;2022-10-31T16:41:43;17.27;;;7.87;;
1004;SDS011;491;53.480;10.174;2022-10-31T16:44:15;16.67;;;8.63;;
1004;SDS011;491;53.480;10.174;2022-10-31T16:46:44;13.57;;;8.37;;
1004;SDS011;491;53.480;10.174;2022-10-31T16:49:09;18.60;;;9.07;;